Time;durP1;ratioP1;P1;durP2;ratioP2;P2;SDS_P1;SDS_P2;PMS_P1;PMS_P2;Temp;Humidity;BMP_temperature;BMP_pressure;BME280_temperature;BME280_humidity;BME280_pressure;Samples;Min_cycle;Max_cycle;Signal;HPM_P1;HPM_P2
2023/06/19 00:03:45;;;;;;;11.73;6.38;;;;;;;;;;10499559;28;20561;-76
2023/06/19 00:08:49;;;;;;;13.45;6.55;;;;;;;;;;10504999;28;20124;-77
2023/06/19 00:13:53;;;;;;;7.25;3.78;;;;;;;;;;10503440;28;20125;-77
2023/06/19 00:18:56;;;;;;;12.75;5.88;;;;;;;;;;10504421;28;20040;-76
2023/06/19 00:23:59;;;;;;;10.70;6.45;;;;;;;;;;10508258;28;20044;-76
2023/06/19 00:29:03;;;;;;;10.30;6.40;;;;;;;;;;10502340;28;20090;-77
2023/06/19 00:34:06;;;;;;;10.07;6.20;;;;;;;;;;10497005;28;20473;-77
2023/06/19 00:39:10;;;;;;;11.60;7.25;;;;;;;;;;10500252;28;20083;-75
2023/06/19 00:44:14;;;;;;;11.27;5.15;;;;;;;;;;10503852;28;20409;-77
2023/06/19 00:49:17;;;;;;;11.05;6.72;;;;;;;;;;10504884;28;20047;-76
2023/06/19 00:54:20;;;;;;;5.78;3.53;;;;;;;;;;10499612;28;20115;-77
2023/06/19 00:59:24;;;;;;;12.50;6.95;;;;;;;;;;10522801;28;20270;-76
2023/06/19 01:04:27;;;;;;;13.73;7.30;;;;;;;;;;10499988;28;20063;-76
2023/06/19 01:09:32;;;;;;;10.77;6.88;;;;;;;;;;10498772;28;20061;-75
2023/06/19 01:14:39;;;;;;;12.88;6.85;;;;;;;;;;10499354;28;20060;-76
2023/06/19 01:19:42;;;;;;;11.45;6.43;;;;;;;;;;10501684;28;20044;-77
2023/06/19 01:24:47;;;;;;;12.50;6.60;;;;;;;;;;10504182;28;20137;-76
2023/06/19 01:29:50;;;;;;;11.38;7.32;;;;;;;;;;10498998;28;20051;-76
2023/06/19 01:34:53;;;;;;;11.68;6.35;;;;;;;;;;10502277;28;20113;-75
2023/06/19 01:39:58;;;;;;;10.88;6.53;;;;;;;;;;10501108;28;20112;-75
2023/06/19 01:45:03;;;;;;;13.38;7.10;;;;;;;;;;10500827;28;20047;-76
2023/06/19 01:50:06;;;;;;;7.88;4.32;;;;;;;;;;10498488;28;20041;-75
2023/06/19 01:55:11;;;;;;;11.23;7.20;;;;;;;;;;10498577;28;20698;-76
2023/06/19 02:00:14;;;;;;;12.27;7.22;;;;;;;;;;10493145;28;20049;-77
2023/06/19 02:05:17;;;;;;;;;;;;;;;;;;10500542;28;20037;-76
2023/06/19 02:10:21;;;;;;;14.23;6.95;;;;;;;;;;10498513;28;19995;-78
2023/06/19 02:15:24;;;;;;;13.73;7.28;;;;;;;;;;10500047;28;20045;-76
2023/06/19 02:20:27;;;;;;;11.73;7.32;;;;;;;;;;10502426;28;20104;-75
2023/06/19 02:25:31;;;;;;;12.13;6.88;;;;;;;;;;10513643;28;20041;-75
2023/06/19 02:30:33;;;;;;;12.52;7.68;;;;;;;;;;10508446;28;20078;-77
2023/06/19 02:35:36;;;;;;;11.68;6.85;;;;;;;;;;10509051;28;20047;-76
2023/06/19 02:40:40;;;;;;;14.68;7.82;;;;;;;;;;10508264;28;20048;-77
2023/06/19 02:45:43;;;;;;;12.77;7.57;;;;;;;;;;10503761;28;20048;-77
2023/06/19 02:50:46;;;;;;;11.57;5.65;;;;;;;;;;10505974;28;20056;-77
2023/06/19 02:55:50;;;;;;;12.30;7.17;;;;;;;;;;10509469;28;20136;-76
2023/06/19 03:00:53;;;;;;;9.32;5.75;;;;;;;;;;10500270;28;20318;-77
2023/06/19 03:05:56;;;;;;;11.73;7.35;;;;;;;;;;10506212;28;20070;-77
2023/06/19 03:11:00;;;;;;;14.55;7.57;;;;;;;;;;10508898;28;20041;-77
2023/06/19 03:16:03;;;;;;;15.45;6.82;;;;;;;;;;10499152;28;20046;-76
2023/06/19 03:21:06;;;;;;;13.65;7.18;;;;;;;;;;10509735;28;20040;-78
2023/06/19 03:26:11;;;;;;;11.80;7.05;;;;;;;;;;10503141;28;20072;-77
2023/06/19 03:31:13;;;;;;;13.68;6.28;;;;;;;;;;10501788;28;20131;-77
2023/06/19 03:36:16;;;;;;;10.98;6.85;;;;;;;;;;10503122;28;20123;-77
2023/06/19 03:41:20;;;;;;;11.88;7.22;;;;;;;;;;10502011;28;20529;-76
2023/06/19 03:46:23;;;;;;;11.45;6.47;;;;;;;;;;10507647;28;20037;-76
2023/06/19 03:51:28;;;;;;;;;;;;;;;;;;10509037;28;20402;-76
2023/06/19 03:56:32;;;;;;;11.98;6.78;;;;;;;;;;10504056;28;19931;-75
2023/06/19 04:01:35;;;;;;;12.88;7.85;;;;;;;;;;10503081;28;20063;-75
2023/06/19 04:06:38;;;;;;;11.68;7.25;;;;;;;;;;10501370;28;20038;-76
2023/06/19 04:11:42;;;;;;;12.32;7.13;;;;;;;;;;10506395;28;20083;-76
2023/06/19 04:16:45;;;;;;;12.77;7.45;;;;;;;;;;10509142;28;20100;-76
2023/06/19 04:21:48;;;;;;;11.70;7.53;;;;;;;;;;10509979;28;20125;-76
2023/06/19 04:26:51;;;;;;;;;;;;;;;;;;10502956;28;20077;-76
2023/06/19 04:31:55;;;;;;;12.70;7.53;;;;;;;;;;10507693;28;19984;-77
2023/06/19 04:36:58;;;;;;;14.98;7.60;;;;;;;;;;10504678;28;20051;-77
2023/06/19 04:42:01;;;;;;;13.13;8.05;;;;;;;;;;10506935;28;20064;-77
2023/06/19 04:47:05;;;;;;;11.85;7.03;;;;;;;;;;10506371;28;20561;-77
2023/06/19 04:52:08;;;;;;;12.32;7.47;;;;;;;;;;10503019;28;20036;-77
2023/06/19 04:57:11;;;;;;;11.85;7.70;;;;;;;;;;10503082;28;20127;-76
2023/06/19 05:02:15;;;;;;;14.50;8.15;;;;;;;;;;10503695;28;20071;-76
2023/06/19 05:07:18;;;;;;;12.23;7.47;;;;;;;;;;10504538;28;20040;-77
2023/06/19 05:12:20;;;;;;;12.48;7.50;;;;;;;;;;10503370;28;20077;-76
2023/06/19 05:17:26;;;;;;;13.57;7.63;;;;;;;;;;10506507;28;20056;-77
2023/06/19 05:22:31;;;;;;;14.63;7.68;;;;;;;;;;10502554;28;20106;-77
2023/06/19 05:27:34;;;;;;;12.32;7.07;;;;;;;;;;10506366;28;20068;-76
2023/06/19 05:32:37;;;;;;;13.77;7.97;;;;;;;;;;10502572;28;20058;-77
2023/06/19 05:37:42;;;;;;;11.90;7.28;;;;;;;;;;10507623;28;20029;-77
2023/06/19 05:42:45;;;;;;;14.63;7.78;;;;;;;;;;10504578;28;20040;-76
2023/06/19 05:47:49;;;;;;;14.02;7.50;;;;;;;;;;10511894;28;20056;-77
2023/06/19 05:52:52;;;;;;;12.50;6.80;;;;;;;;;;10506087;28;20127;-78
2023/06/19 05:57:55;;;;;;;10.95;6.50;;;;;;;;;;10508459;28;20036;-78
2023/06/19 06:03:00;;;;;;;14.90;7.30;;;;;;;;;;10515470;28;20163;-77
2023/06/19 06:08:03;;;;;;;11.52;6.22;;;;;;;;;;10504784;28;20117;-76
2023/06/19 06:13:06;;;;;;;14.02;6.45;;;;;;;;;;10510306;28;20410;-76
2023/06/19 06:18:10;;;;;;;12.77;6.72;;;;;;;;;;10501115;28;20044;-76
2023/06/19 06:23:12;;;;;;;10.85;6.22;;;;;;;;;;10508009;28;20545;-76
2023/06/19 06:28:15;;;;;;;12.07;6.88;;;;;;;;;;10502413;28;20127;-77
2023/06/19 06:33:19;;;;;;;11.05;6.32;;;;;;;;;;10503009;28;20049;-77
2023/06/19 06:38:22;;;;;;;21.10;7.72;;;;;;;;;;10504675;28;20043;-77
2023/06/19 06:43:24;;;;;;;10.50;4.90;;;;;;;;;;10494980;28;20393;-78
2023/06/19 06:48:30;;;;;;;9.23;5.57;;;;;;;;;;10500697;28;20119;-77
2023/06/19 06:53:32;;;;;;;12.60;6.43;;;;;;;;;;10502950;28;20179;-77
2023/06/19 06:58:36;;;;;;;10.13;6.00;;;;;;;;;;10501569;28;20486;-76
2023/06/19 07:03:40;;;;;;;12.82;5.65;;;;;;;;;;10502413;28;20142;-77
2023/06/19 07:08:42;;;;;;;9.95;5.93;;;;;;;;;;10501112;28;20052;-79
2023/06/19 07:13:45;;;;;;;;;;;;;;;;;;10504704;28;20045;-77
2023/06/19 07:18:49;;;;;;;7.73;4.23;;;;;;;;;;10499330;28;20107;-76
2023/06/19 07:23:51;;;;;;;9.23;6.20;;;;;;;;;;10488464;28;20055;-77
2023/06/19 07:28:54;;;;;;;8.52;5.20;;;;;;;;;;10499762;28;20044;-77
2023/06/19 07:33:56;;;;;;;;;;;;;;;;;;10499061;28;20199;-77
2023/06/19 07:39:01;;;;;;;6.83;5.23;;;;;;;;;;10501047;28;19920;-77
2023/06/19 07:44:03;;;;;;;7.95;5.05;;;;;;;;;;10499194;28;20322;-77
2023/06/19 07:49:06;;;;;;;10.27;4.97;;;;;;;;;;10502496;28;20041;-76
2023/06/19 07:54:10;;;;;;;10.68;5.30;;;;;;;;;;10504774;28;20041;-74
2023/06/19 07:59:13;;;;;;;8.52;4.60;;;;;;;;;;10500155;28;20101;-77
2023/06/19 08:04:16;;;;;;;6.43;4.45;;;;;;;;;;10505155;28;20052;-77
2023/06/19 08:09:20;;;;;;;8.82;4.88;;;;;;;;;;10502050;28;20123;-76
2023/06/19 08:14:23;;;;;;;7.07;4.43;;;;;;;;;;10500125;28;20075;-77
2023/06/19 08:19:25;;;;;;;8.25;4.60;;;;;;;;;;10499846;28;20517;-76
2023/06/19 08:24:29;;;;;;;8.80;5.00;;;;;;;;;;10501740;28;20097;-76
2023/06/19 08:29:32;;;;;;;6.35;4.82;;;;;;;;;;10503148;28;20116;-78
2023/06/19 08:34:34;;;;;;;5.60;4.38;;;;;;;;;;10501568;28;20123;-78
2023/06/19 08:39:39;;;;;;;6.18;4.45;;;;;;;;;;10503400;28;20136;-77
2023/06/19 08:44:41;;;;;;;5.65;4.25;;;;;;;;;;10501867;28;20116;-77
2023/06/19 08:49:44;;;;;;;5.13;4.10;;;;;;;;;;10496639;28;20517;-77
2023/06/19 08:54:48;;;;;;;5.05;4.50;;;;;;;;;;10507825;28;20037;-78
2023/06/19 08:59:51;;;;;;;4.40;3.30;;;;;;;;;;10510989;28;20071;-77
2023/06/19 09:04:54;;;;;;;4.95;2.33;;;;;;;;;;10503913;28;20136;-78
2023/06/19 09:09:58;;;;;;;2.92;2.40;;;;;;;;;;10494482;28;20047;-78
2023/06/19 09:15:00;;;;;;;4.35;2.65;;;;;;;;;;10498978;28;20097;-78
2023/06/19 09:20:05;;;;;;;6.13;2.92;;;;;;;;;;10498630;28;20163;-78
2023/06/19 09:25:10;;;;;;;3.50;3.10;;;;;;;;;;10493004;28;20060;-76
2023/06/19 09:30:15;;;;;;;4.55;3.15;;;;;;;;;;10498358;28;20041;-76
2023/06/19 09:35:18;;;;;;;5.38;3.65;;;;;;;;;;10502707;28;20059;-75
2023/06/19 09:40:22;;;;;;;4.40;3.70;;;;;;;;;;10495438;28;20063;-77
2023/06/19 09:45:28;;;;;;;5.18;4.57;;;;;;;;;;10496634;28;20051;-77
2023/06/19 09:50:31;;;;;;;7.25;4.72;;;;;;;;;;10501150;28;20040;-77
2023/06/19 09:55:37;;;;;;;5.72;5.00;;;;;;;;;;10501605;28;20094;-77
2023/06/19 10:00:40;;;;;;;7.03;5.00;;;;;;;;;;10498646;28;20037;-77
2023/06/19 10:05:43;;;;;;;5.35;4.85;;;;;;;;;;10496848;28;20128;-78
2023/06/19 10:10:49;;;;;;;12.60;6.07;;;;;;;;;;10498346;28;20458;-78
2023/06/19 10:15:52;;;;;;;6.28;4.63;;;;;;;;;;10499202;28;20071;-78
2023/06/19 10:20:55;;;;;;;6.13;4.88;;;;;;;;;;10497514;28;20041;-78
2023/06/19 10:25:59;;;;;;;7.20;5.35;;;;;;;;;;10493882;28;20087;-77
2023/06/19 10:31:06;;;;;;;5.43;4.85;;;;;;;;;;10497662;28;20051;-78
2023/06/19 10:36:19;;;;;;;6.85;4.90;;;;;;;;;;10497956;28;20366;-78
2023/06/19 10:41:25;;;;;;;7.55;5.20;;;;;;;;;;10499346;28;20056;-78
2023/06/19 10:46:33;;;;;;;5.95;4.93;;;;;;;;;;10507585;28;20098;-78
2023/06/19 10:51:57;;;;;;;6.45;4.30;;;;;;;;;;10504693;28;20029;-78
2023/06/19 10:57:04;;;;;;;4.63;3.90;;;;;;;;;;10503776;28;20915;-79
2023/06/19 11:02:07;;;;;;;5.93;4.53;;;;;;;;;;10504634;28;20321;-78
2023/06/19 11:07:10;;;;;;;5.97;4.60;;;;;;;;;;10500842;28;20044;-77
2023/06/19 11:12:19;;;;;;;5.68;4.28;;;;;;;;;;10502645;28;20067;-77
2023/06/19 11:17:23;;;;;;;5.30;3.60;;;;;;;;;;10505394;28;20036;-77
2023/06/19 11:22:36;;;;;;;4.35;3.95;;;;;;;;;;10502920;28;20059;-77
2023/06/19 11:27:40;;;;;;;7.13;3.75;;;;;;;;;;10505411;28;20044;-77
2023/06/19 11:32:45;;;;;;;5.13;3.78;;;;;;;;;;10504087;28;20238;-78
2023/06/19 11:37:48;;;;;;;4.72;3.60;;;;;;;;;;10500173;28;20052;-77
2023/06/19 11:42:54;;;;;;;4.70;3.40;;;;;;;;;;10504602;28;20037;-78
2023/06/19 11:47:56;;;;;;;4.43;3.67;;;;;;;;;;10507740;28;20039;-78
2023/06/19 11:52:59;;;;;;;6.22;3.92;;;;;;;;;;10501942;28;20487;-78
2023/06/19 11:58:03;;;;;;;5.32;4.00;;;;;;;;;;10500622;28;20514;-78
2023/06/19 12:03:06;;;;;;;4.57;3.95;;;;;;;;;;10503843;28;20076;-77
2023/06/19 12:08:09;;;;;;;3.85;3.42;;;;;;;;;;10497510;28;20236;-78
2023/06/19 12:13:13;;;;;;;4.80;3.67;;;;;;;;;;10499420;28;20059;-77
2023/06/19 12:18:15;;;;;;;4.05;3.58;;;;;;;;;;10500887;28;20398;-77
2023/06/19 12:23:19;;;;;;;5.63;5.03;;;;;;;;;;10504510;28;20144;-78
2023/06/19 12:28:23;;;;;;;3.88;3.42;;;;;;;;;;10511101;28;20072;-77
2023/06/19 12:33:25;;;;;;;4.28;3.75;;;;;;;;;;10505810;28;20051;-77
2023/06/19 12:38:29;;;;;;;6.68;4.00;;;;;;;;;;10504190;28;20036;-77
2023/06/19 12:43:34;;;;;;;4.93;3.60;;;;;;;;;;10502393;28;20079;-77
2023/06/19 12:48:37;;;;;;;5.15;3.60;;;;;;;;;;10503313;28;20033;-77
2023/06/19 12:53:39;;;;;;;4.13;3.72;;;;;;;;;;10503154;28;20158;-78
2023/06/19 12:58:43;;;;;;;5.05;3.80;;;;;;;;;;10502653;28;20036;-79
2023/06/19 13:03:46;;;;;;;5.88;3.60;;;;;;;;;;10500959;28;20064;-78
2023/06/19 13:08:49;;;;;;;4.53;3.50;;;;;;;;;;10501810;28;20045;-78
2023/06/19 13:13:53;;;;;;;4.20;3.28;;;;;;;;;;10497088;28;20044;-76
2023/06/19 13:18:55;;;;;;;3.97;3.10;;;;;;;;;;10496373;28;20045;-77
2023/06/19 13:23:58;;;;;;;6.60;3.20;;;;;;;;;;10497644;28;20052;-76
2023/06/19 13:29:02;;;;;;;5.07;3.30;;;;;;;;;;10498325;28;20110;-76
2023/06/19 13:34:05;;;;;;;3.97;3.00;;;;;;;;;;10496051;28;20345;-77
2023/06/19 13:39:07;;;;;;;6.93;3.15;;;;;;;;;;10501637;28;20139;-78
2023/06/19 13:44:12;;;;;;;4.32;3.33;;;;;;;;;;10498423;28;20040;-77
2023/06/19 13:49:14;;;;;;;4.20;3.10;;;;;;;;;;10502761;28;20047;-76
2023/06/19 13:54:18;;;;;;;6.03;3.50;;;;;;;;;;10502338;28;20049;-79
2023/06/19 13:59:21;;;;;;;4.07;3.33;;;;;;;;;;10502775;28;20123;-77
2023/06/19 14:04:24;;;;;;;6.13;3.30;;;;;;;;;;10499862;28;20049;-76
2023/06/19 14:09:27;;;;;;;4.15;3.50;;;;;;;;;;10500381;28;20036;-81
2023/06/19 14:14:31;;;;;;;5.88;3.40;;;;;;;;;;10501277;28;20071;-78
2023/06/19 14:19:34;;;;;;;4.22;2.95;;;;;;;;;;10506417;28;20078;-79
2023/06/19 14:24:36;;;;;;;3.92;3.20;;;;;;;;;;10508801;28;20048;-77
2023/06/19 14:29:41;;;;;;;6.35;3.70;;;;;;;;;;10501915;28;20561;-78
2023/06/19 14:34:44;;;;;;;7.13;3.60;;;;;;;;;;10509810;28;20116;-78
2023/06/19 14:39:47;;;;;;;6.10;3.60;;;;;;;;;;10505207;28;20060;-78
2023/06/19 14:44:50;;;;;;;5.40;3.50;;;;;;;;;;10506830;28;20044;-77
2023/06/19 14:49:53;;;;;;;4.53;3.15;;;;;;;;;;10503529;28;20054;-76
2023/06/19 14:54:56;;;;;;;4.13;3.10;;;;;;;;;;10504366;28;20060;-76
2023/06/19 15:00:04;;;;;;;7.03;3.90;;;;;;;;;;10511063;28;20143;-79
2023/06/19 15:05:07;;;;;;;6.10;3.58;;;;;;;;;;10512092;28;20123;-76
2023/06/19 15:10:11;;;;;;;6.45;3.60;;;;;;;;;;10511377;28;20108;-77
2023/06/19 15:15:15;;;;;;;7.30;3.55;;;;;;;;;;10509376;28;20060;-77
2023/06/19 15:20:20;;;;;;;5.45;4.00;;;;;;;;;;10509640;28;20040;-76
2023/06/19 15:25:23;;;;;;;6.03;3.58;;;;;;;;;;10505702;28;20577;-77
2023/06/19 15:30:27;;;;;;;6.03;3.83;;;;;;;;;;10504587;28;20112;-77
2023/06/19 15:35:30;;;;;;;6.95;4.10;;;;;;;;;;10501616;28;20041;-77
2023/06/19 15:40:32;;;;;;;6.25;4.07;;;;;;;;;;10501845;28;20937;-77
2023/06/19 15:45:36;;;;;;;7.35;4.05;;;;;;;;;;10503766;28;20052;-77
2023/06/19 15:50:40;;;;;;;6.18;3.60;;;;;;;;;;10502233;28;20052;-77
2023/06/19 15:55:42;;;;;;;9.57;4.38;;;;;;;;;;10499696;28;20286;-77
2023/06/19 16:00:49;;;;;;;6.20;4.20;;;;;;;;;;10499746;28;20064;-78
2023/06/19 16:05:52;;;;;;;7.53;4.30;;;;;;;;;;10504642;28;20480;-79
2023/06/19 16:10:57;;;;;;;7.13;3.90;;;;;;;;;;10502972;28;20482;-79
2023/06/19 16:16:01;;;;;;;7.93;4.20;;;;;;;;;;10501248;28;20071;-78
2023/06/19 16:21:04;;;;;;;7.18;3.67;;;;;;;;;;10496665;28;20579;-79
2023/06/19 16:26:07;;;;;;;6.03;3.60;;;;;;;;;;10502193;28;20052;-79
2023/06/19 16:31:11;;;;;;;6.75;4.00;;;;;;;;;;10495995;28;20099;-78
2023/06/19 16:36:14;;;;;;;9.13;3.75;;;;;;;;;;10497888;28;20097;-79
2023/06/19 16:41:17;;;;;;;5.32;3.67;;;;;;;;;;10493057;28;20032;-78
2023/06/19 16:46:23;;;;;;;8.07;3.70;;;;;;;;;;10499476;28;20169;-78
2023/06/19 16:51:26;;;;;;;5.53;3.78;;;;;;;;;;10497841;28;20051;-78
2023/06/19 16:56:29;;;;;;;6.25;3.53;;;;;;;;;;10500719;28;20059;-79
2023/06/19 17:01:33;;;;;;;7.10;4.40;;;;;;;;;;10498619;28;20131;-78
2023/06/19 17:06:36;;;;;;;6.43;3.88;;;;;;;;;;10503228;28;20044;-78
2023/06/19 17:11:39;;;;;;;6.43;3.90;;;;;;;;;;10505557;28;20115;-78
2023/06/19 17:16:45;;;;;;;6.65;3.65;;;;;;;;;;10504239;28;20037;-77
2023/06/19 17:21:48;;;;;;;7.32;3.85;;;;;;;;;;10500278;28;20040;-78
2023/06/19 17:26:56;;;;;;;9.18;4.00;;;;;;;;;;10498842;28;20037;-78
2023/06/19 17:32:00;;;;;;;5.97;3.65;;;;;;;;;;10493031;28;20040;-78
2023/06/19 17:37:03;;;;;;;6.15;3.85;;;;;;;;;;10497373;28;20718;-75
2023/06/19 17:42:08;;;;;;;6.35;3.50;;;;;;;;;;10499989;28;20346;-78
2023/06/19 17:47:12;;;;;;;7.18;3.85;;;;;;;;;;10498632;28;20139;-77
2023/06/19 17:52:15;;;;;;;6.60;3.75;;;;;;;;;;10502548;28;20036;-78
2023/06/19 17:57:18;;;;;;;4.95;3.47;;;;;;;;;;10506554;28;20043;-76
2023/06/19 18:02:22;;;;;;;6.03;3.70;;;;;;;;;;10505625;28;20093;-77
2023/06/19 18:07:25;;;;;;;6.15;3.45;;;;;;;;;;10505746;28;20048;-77
2023/06/19 18:12:27;;;;;;;11.25;4.20;;;;;;;;;;10509477;28;20064;-75
2023/06/19 18:17:31;;;;;;;6.30;3.63;;;;;;;;;;10506236;28;20047;-76
2023/06/19 18:22:34;;;;;;;7.32;3.72;;;;;;;;;;10497040;28;20044;-74
2023/06/19 18:27:38;;;;;;;7.43;4.00;;;;;;;;;;10502854;28;20063;-75
2023/06/19 18:32:43;;;;;;;7.40;3.55;;;;;;;;;;10500279;28;21117;-76
2023/06/19 18:37:46;;;;;;;6.82;4.07;;;;;;;;;;10501340;28;20044;-77
2023/06/19 18:42:49;;;;;;;6.45;4.10;;;;;;;;;;10512430;28;20048;-77
2023/06/19 18:47:53;;;;;;;7.38;4.40;;;;;;;;;;10503101;28;20048;-84
2023/06/19 18:52:56;;;;;;;7.72;4.70;;;;;;;;;;10503829;28;20133;-78
2023/06/19 18:57:59;;;;;;;6.47;4.22;;;;;;;;;;10518735;28;20067;-78
2023/06/19 19:03:03;;;;;;;8.68;4.57;;;;;;;;;;10504002;28;20494;-79
2023/06/19 19:08:06;;;;;;;7.05;4.10;;;;;;;;;;10501848;28;20053;-78
2023/06/19 19:13:09;;;;;;;9.10;4.13;;;;;;;;;;10502168;28;20139;-77
2023/06/19 19:18:13;;;;;;;8.13;4.50;;;;;;;;;;10496402;28;20104;-78
2023/06/19 19:23:16;;;;;;;7.35;4.65;;;;;;;;;;10505191;28;20108;-77
2023/06/19 19:28:18;;;;;;;9.23;5.30;;;;;;;;;;10502697;28;20048;-78
2023/06/19 19:33:21;;;;;;;;;;;;;;;;;;10502934;28;20108;-77
2023/06/19 19:38:26;;;;;;;8.77;4.95;;;;;;;;;;10503571;28;20011;-78
2023/06/19 19:43:28;;;;;;;9.32;5.43;;;;;;;;;;10502987;28;20045;-78
2023/06/19 19:48:31;;;;;;;8.65;5.60;;;;;;;;;;10503872;28;20135;-79
2023/06/19 19:53:35;;;;;;;6.93;4.97;;;;;;;;;;10495948;28;20105;-78
2023/06/19 19:58:38;;;;;;;9.30;5.30;;;;;;;;;;10502539;28;20171;-78
2023/06/19 20:03:42;;;;;;;9.35;5.70;;;;;;;;;;10503909;28;20103;-80
2023/06/19 20:08:46;;;;;;;11.45;6.05;;;;;;;;;;10499230;28;20036;-77
2023/06/19 20:13:49;;;;;;;15.63;6.40;;;;;;;;;;10501445;28;20108;-76
2023/06/19 20:18:52;;;;;;;;;;;;;;;;;;10506769;28;20076;-76
2023/06/19 20:23:56;;;;;;;11.23;6.75;;;;;;;;;;10504599;28;20011;-78
2023/06/19 20:28:59;;;;;;;11.50;7.03;;;;;;;;;;10504058;28;20475;-75
2023/06/19 20:34:02;;;;;;;11.60;6.82;;;;;;;;;;10503527;28;20059;-76
2023/06/19 20:39:07;;;;;;;10.77;7.13;;;;;;;;;;10501368;28;20040;-77
2023/06/19 20:44:09;;;;;;;11.10;6.93;;;;;;;;;;10499304;28;20141;-76
2023/06/19 20:49:12;;;;;;;12.18;6.95;;;;;;;;;;10501231;28;20056;-78
2023/06/19 20:54:17;;;;;;;10.57;6.13;;;;;;;;;;10497458;28;20058;-77
2023/06/19 20:59:20;;;;;;;10.48;6.25;;;;;;;;;;10495163;28;20040;-78
2023/06/19 21:04:31;;;;;;;12.02;6.35;;;;;;;;;;10503382;28;20094;-77
2023/06/19 21:09:37;;;;;;;11.57;7.03;;;;;;;;;;10551262;28;20115;-78
2023/06/19 21:14:40;;;;;;;11.52;6.65;;;;;;;;;;10548835;28;20032;-80
2023/06/19 21:19:43;;;;;;;11.13;6.18;;;;;;;;;;10557533;28;20360;-83
2023/06/19 21:24:46;;;;;;;;;;;;;;;;;;10556130;28;20063;-83
2023/06/19 21:29:50;;;;;;;12.45;6.15;;;;;;;;;;10545455;28;19924;-82
2023/06/19 21:34:53;;;;;;;6.95;3.80;;;;;;;;;;10531285;28;20047;-86
2023/06/19 21:39:57;;;;;;;6.43;3.58;;;;;;;;;;10543341;28;20040;-85
2023/06/19 21:45:02;;;;;;;3.58;2.53;;;;;;;;;;10532060;28;20074;-83
2023/06/19 21:50:06;;;;;;;4.50;2.25;;;;;;;;;;10586226;28;20590;-83
2023/06/19 21:55:10;;;;;;;6.30;1.77;;;;;;;;;;10586225;28;20058;-84
2023/06/19 22:00:16;;;;;;;3.40;1.73;;;;;;;;;;10582779;28;20077;-83
2023/06/19 22:05:20;;;;;;;2.30;1.30;;;;;;;;;;10587847;28;20039;-83
2023/06/19 22:10:24;;;;;;;3.65;2.10;;;;;;;;;;10586368;28;20040;-83
2023/06/19 22:15:28;;;;;;;5.60;2.28;;;;;;;;;;10584816;28;20055;-82
2023/06/19 22:20:31;;;;;;;4.03;2.10;;;;;;;;;;10582673;28;20043;-81
2023/06/19 22:25:34;;;;;;;2.78;1.70;;;;;;;;;;10583216;28;20043;-78
2023/06/19 22:30:38;;;;;;;4.40;1.80;;;;;;;;;;10603837;27;20119;-78
2023/06/19 22:35:40;;;;;;;5.70;2.10;;;;;;;;;;10589611;28;20059;-78
2023/06/19 22:40:43;;;;;;;4.67;2.20;;;;;;;;;;10592021;27;20074;-79
2023/06/19 22:45:47;;;;;;;3.87;1.90;;;;;;;;;;10597904;27;20129;-78
2023/06/19 22:50:50;;;;;;;3.95;1.98;;;;;;;;;;10599457;27;20035;-79
2023/06/19 22:55:52;;;;;;;9.30;2.60;;;;;;;;;;10599491;27;20103;-79
2023/06/19 23:00:57;;;;;;;5.43;2.53;;;;;;;;;;10597936;27;20047;-80
2023/06/19 23:05:59;;;;;;;3.92;1.83;;;;;;;;;;10594979;28;20051;-79
2023/06/19 23:11:02;;;;;;;2.77;1.60;;;;;;;;;;10575320;28;20043;-79
2023/06/19 23:16:08;;;;;;;4.57;1.97;;;;;;;;;;10604018;27;20057;-79
2023/06/19 23:21:11;;;;;;;5.13;2.20;;;;;;;;;;10602980;27;20048;-80
2023/06/19 23:26:14;;;;;;;5.63;2.47;;;;;;;;;;10577252;27;20054;-78
2023/06/19 23:31:20;;;;;;;6.57;3.08;;;;;;;;;;10594621;27;20039;-79
2023/06/19 23:36:23;;;;;;;5.95;2.60;;;;;;;;;;10597812;28;20071;-78
2023/06/19 23:41:26;;;;;;;6.17;2.33;;;;;;;;;;10598773;27;20050;-76
2023/06/19 23:46:30;;;;;;;5.22;2.60;;;;;;;;;;10597631;27;20131;-78
2023/06/19 23:51:32;;;;;;;5.10;2.53;;;;;;;;;;10594723;27;20126;-78
2023/06/19 23:56:35;;;;;;;5.20;2.50;;;;;;;;;;10573526;28;20107;-80
